Main page
Satellite images 15-day forecastsClimateMarine weather Cyclones Lightning AirportsFAQ Newsletter About
Weather : Europe Africa North America South America Asia Australia-Oceania Others
Languages Contact

Baia Mare, Romania

latitude: 47-40N, longitude: 023-35E, elevation: 218 m


METAR: LRBM 250330Z VRB02KT 9999 SCT065 13/13 Q1014
short-TAF: LRBM 250200Z 2503/2512 VRB04KT CAVOK
long-TAF: out of date (31975 hours)

Time: 06:42 (03:42 UTC)

Current weather observation

The report was made 12 minutes ago, at 03:30 UTC  
Wind 02 kt from variable directions
Temperature 13°C
Humidity 100%
Pressure 1014 hPa
Visibility 10 km or more
Scattered clouds at a height of 6500 ft

Change units

Forecast

The report was made 1 hour and 11 minutes ago, at 02:31 UTC  
Forecast valid from 25 at 03 UTC to 25 at 12 UTC
Wind 04 kt from variable directions
Visibility 10 km or more
no clouds below 1500 m and no cumulonimbus
The information on this site is subject to a disclaimer
Weather : Europe Africa North America South America Asia Australia-Oceania Others
Satellite images 15-day forecastsClimateMarine weather Cyclones Lightning AirportsFAQ Languages Contact Newsletter About